New Orleans, Louisiana
Traffic Map
Current Weather Conditions
New Orleans, Louisiana
Few Clouds
Few Clouds
72°
Feels Like: 72°
Wind Chill: 72° Ceiling: Unl
Heat Index: 72° Visibility: 9mi
Dew Point: 66° Wind: 16mph
Humidity: 81% Direction: 110° (ESE)
Pressure: 30.18in Gusts: 0mph
Raw Report DataKNEW 240053Z AUTO 11014KT 9SM FEW017 22/19 A3018 RMK AO2 SLP213 T02220189
Traffic Incident Summary
Active as of:
Severity:
Category:
InformationThere was an issue retrieving the traffic information for this location. Please try a different location or try again shortly.
Advertisements
Track Severe Weather on mobile